Time;durP1;ratioP1;P1;durP2;ratioP2;P2;SDS_P1;SDS_P2;PMS_P1;PMS_P2;Temp;Humidity;BMP_temperature;BMP_pressure;BME280_temperature;BME280_humidity;BME280_pressure;Samples;Min_cycle;Max_cycle;Signal;HPM_P1;HPM_P2
2020/12/12 00:02:07;;;;;;;20.50;12.65;;;7.40;99.90;;;;;;4932459;29;20040;-74
2020/12/12 00:04:35;;;;;;;15.15;11.93;;;7.30;99.90;;;;;;4915564;29;20465;-74
2020/12/12 00:07:07;;;;;;;17.60;11.70;;;7.30;99.90;;;;;;4934734;29;20114;-74
2020/12/12 00:09:39;;;;;;;18.85;13.32;;;7.20;99.90;;;;;;4936886;29;20030;-74
2020/12/12 00:12:11;;;;;;;;;;;7.10;99.90;;;;;;4921714;29;20065;-74
2020/12/12 00:14:37;;;;;;;21.15;12.73;;;7.10;99.90;;;;;;4921861;29;19937;-74
2020/12/12 00:17:02;;;;;;;18.50;12.60;;;7.10;99.90;;;;;;4922680;29;20021;-74
2020/12/12 00:19:28;;;;;;;15.55;11.90;;;7.10;99.90;;;;;;4917146;29;20082;-74
2020/12/12 00:21:55;;;;;;;16.55;11.48;;;7.30;99.90;;;;;;4935551;29;20023;-74
2020/12/12 00:24:21;;;;;;;16.65;12.60;;;7.40;99.90;;;;;;4942540;29;20024;-74
2020/12/12 00:26:47;;;;;;;16.20;12.25;;;7.40;99.90;;;;;;4934471;29;20390;-74
2020/12/12 00:29:14;;;;;;;14.55;10.98;;;7.50;99.90;;;;;;4909943;29;20113;-74
2020/12/12 00:31:41;;;;;;;16.52;12.25;;;7.40;99.90;;;;;;4928264;29;20426;-74
2020/12/12 00:34:08;;;;;;;12.70;10.15;;;7.40;99.90;;;;;;4935806;29;20030;-74
2020/12/12 00:36:43;;;;;;;15.35;10.82;;;7.50;99.90;;;;;;4933441;29;20023;-74
2020/12/12 00:39:09;;;;;;;13.52;10.88;;;7.50;99.90;;;;;;4913637;29;20058;-74
2020/12/12 00:41:39;;;;;;;17.30;12.45;;;7.50;99.90;;;;;;4939545;29;20055;-74
2020/12/12 00:44:06;;;;;;;13.05;10.70;;;7.60;99.90;;;;;;4928297;29;20027;-74
2020/12/12 00:46:33;;;;;;;12.45;11.15;;;7.60;99.90;;;;;;4933251;29;20031;-74
2020/12/12 00:48:59;;;;;;;12.48;11.23;;;7.60;99.90;;;;;;4928102;29;20107;-74
2020/12/12 00:51:25;;;;;;;13.52;9.20;;;7.70;99.90;;;;;;4937299;29;20091;-74
2020/12/12 00:53:51;;;;;;;12.32;10.00;;;7.70;99.90;;;;;;4931001;29;20028;-74
2020/12/12 00:56:18;;;;;;;9.98;8.60;;;7.60;99.90;;;;;;4937429;29;20505;-74
2020/12/12 00:58:44;;;;;;;13.10;10.05;;;7.50;99.90;;;;;;4930056;29;20332;-74
2020/12/12 01:01:10;;;;;;;11.75;8.85;;;7.50;99.90;;;;;;4936248;29;20090;-75
2020/12/12 01:03:37;;;;;;;14.95;9.25;;;7.40;99.90;;;;;;4933408;29;20019;-74
2020/12/12 01:06:04;;;;;;;10.50;9.35;;;7.40;99.90;;;;;;4937832;29;20028;-74
2020/12/12 01:08:30;;;;;;;12.05;10.15;;;7.40;99.90;;;;;;4911165;29;20032;-74
2020/12/12 01:10:56;;;;;;;13.18;9.43;;;7.40;99.90;;;;;;4931131;29;20027;-74
2020/12/12 01:13:22;;;;;;;10.43;9.32;;;7.30;99.90;;;;;;4930033;29;20394;-77
2020/12/12 01:15:48;;;;;;;12.68;9.90;;;7.30;99.90;;;;;;4931157;29;20119;-75
2020/12/12 01:18:14;;;;;;;10.73;9.50;;;7.20;99.90;;;;;;4931187;29;20066;-74
2020/12/12 01:20:40;;;;;;;9.57;8.10;;;7.20;99.90;;;;;;4928452;29;20090;-74
2020/12/12 01:23:07;;;;;;;19.65;9.48;;;7.20;99.90;;;;;;4929949;29;20035;-74
2020/12/12 01:25:37;;;;;;;9.68;8.20;;;7.10;99.90;;;;;;4920790;29;20051;-74
2020/12/12 01:28:04;;;;;;;12.43;8.73;;;7.20;99.90;;;;;;4933698;29;20051;-74
2020/12/12 01:30:30;;;;;;;10.68;9.23;;;7.20;99.90;;;;;;4931535;29;20019;-74
2020/12/12 01:32:56;;;;;;;8.32;7.53;;;7.30;99.90;;;;;;4930753;29;20098;-74
2020/12/12 01:35:22;;;;;;;13.60;9.38;;;7.30;99.90;;;;;;4910234;29;20027;-74
2020/12/12 01:37:47;;;;;;;9.95;7.85;;;7.40;99.90;;;;;;4916107;29;20398;-74
2020/12/12 01:40:13;;;;;;;9.02;7.75;;;7.50;99.90;;;;;;4908714;29;20052;-74
2020/12/12 01:42:39;;;;;;;9.43;8.50;;;7.50;99.90;;;;;;4931927;29;20087;-74
2020/12/12 01:45:07;;;;;;;9.25;7.60;;;7.50;99.90;;;;;;4934402;29;20551;-74
2020/12/12 01:47:34;;;;;;;10.80;8.27;;;7.40;99.90;;;;;;4929454;29;20042;-74
2020/12/12 01:50:00;;;;;;;11.35;8.73;;;7.40;99.90;;;;;;4923181;29;20039;-74
2020/12/12 01:52:27;;;;;;;10.60;8.93;;;7.40;99.90;;;;;;4910875;29;20031;-74
2020/12/12 01:54:53;;;;;;;10.35;8.50;;;7.40;99.90;;;;;;4926135;29;20036;-74
2020/12/12 01:57:23;;;;;;;8.52;7.70;;;7.40;99.90;;;;;;4928551;29;20536;-74
2020/12/12 01:59:50;;;;;;;10.73;8.10;;;7.40;99.90;;;;;;4935684;29;20118;-74
2020/12/12 02:02:18;;;;;;;11.65;7.97;;;7.30;99.90;;;;;;4921477;29;20641;-74
2020/12/12 02:04:54;;;;;;;9.07;7.65;;;7.30;99.90;;;;;;4936586;29;20131;-74
2020/12/12 02:07:22;;;;;;;9.15;7.40;;;7.40;99.90;;;;;;4931094;29;20034;-74
2020/12/12 02:09:49;;;;;;;7.80;7.00;;;7.30;99.90;;;;;;4930165;29;20111;-74
2020/12/12 02:12:16;;;;;;;8.68;7.80;;;7.30;99.90;;;;;;4930085;29;20039;-74
2020/12/12 02:14:43;;;;;;;11.15;8.40;;;7.20;99.90;;;;;;4931378;29;20032;-74
2020/12/12 02:17:10;;;;;;;9.88;8.25;;;7.10;99.90;;;;;;4933349;29;20106;-74
2020/12/12 02:19:36;;;;;;;11.07;7.60;;;7.10;99.90;;;;;;4929881;29;20360;-74
2020/12/12 02:22:07;;;;;;;10.82;8.57;;;7.30;99.90;;;;;;4929666;29;20099;-74
2020/12/12 02:24:34;;;;;;;11.45;8.05;;;7.30;99.90;;;;;;4931867;29;20387;-74
2020/12/12 02:27:02;;;;;;;9.15;8.25;;;7.30;99.90;;;;;;4923708;29;20031;-76
2020/12/12 02:29:40;;;;;;;9.93;6.88;;;7.30;99.90;;;;;;4913425;29;20023;-74
2020/12/12 02:32:07;;;;;;;8.48;6.70;;;7.40;99.90;;;;;;4912427;29;20028;-74
2020/12/12 02:34:33;;;;;;;9.35;7.32;;;7.30;99.90;;;;;;4930874;29;20024;-74
2020/12/12 02:36:58;;;;;;;9.13;7.05;;;7.40;99.90;;;;;;4914260;29;20043;-74
2020/12/12 02:39:24;;;;;;;7.30;6.60;;;7.40;99.90;;;;;;4930697;29;20049;-74
2020/12/12 02:41:50;;;;;;;8.50;6.93;;;7.40;99.90;;;;;;4926412;29;20103;-74
2020/12/12 02:44:16;;;;;;;8.93;6.97;;;7.30;99.90;;;;;;4932640;29;20024;-74
2020/12/12 02:46:42;;;;;;;8.00;7.15;;;7.30;99.90;;;;;;4909782;29;20084;-74
2020/12/12 02:49:07;;;;;;;8.15;7.35;;;7.30;99.90;;;;;;4930629;29;20106;-74
2020/12/12 02:51:41;;;;;;;9.00;7.78;;;7.20;99.90;;;;;;4929149;29;20047;-74
2020/12/12 02:54:07;;;;;;;7.45;6.75;;;7.20;99.90;;;;;;4926799;29;20110;-74
2020/12/12 02:56:33;;;;;;;8.52;7.07;;;7.20;99.90;;;;;;4927790;29;20523;-74
2020/12/12 02:58:59;;;;;;;10.82;7.65;;;7.20;99.90;;;;;;4914757;29;20525;-74
2020/12/12 03:01:25;;;;;;;7.80;7.10;;;7.10;99.90;;;;;;4932514;29;20027;-74
2020/12/12 03:03:51;;;;;;;7.47;6.20;;;7.00;99.90;;;;;;4948806;29;20083;-73
2020/12/12 03:06:17;;;;;;;7.82;6.60;;;7.00;99.90;;;;;;4953157;29;20024;-74
2020/12/12 03:08:43;;;;;;;10.10;6.88;;;7.00;99.90;;;;;;4948347;29;20093;-74
2020/12/12 03:11:09;;;;;;;7.70;6.57;;;7.10;99.90;;;;;;4954848;29;20022;-74
2020/12/12 03:13:35;;;;;;;6.10;5.53;;;7.10;99.90;;;;;;4932934;29;20036;-74
2020/12/12 03:16:01;;;;;;;11.77;6.97;;;7.20;99.90;;;;;;4915130;29;20039;-74
2020/12/12 03:18:26;;;;;;;7.82;6.18;;;7.20;99.90;;;;;;4926747;29;20023;-74
2020/12/12 03:20:52;;;;;;;7.50;6.07;;;7.20;99.90;;;;;;4933597;29;20039;-74
2020/12/12 03:23:18;;;;;;;8.45;6.15;;;7.10;99.90;;;;;;4928908;29;20107;-74
2020/12/12 03:25:44;;;;;;;7.43;6.72;;;7.20;99.90;;;;;;4934118;29;20567;-74
2020/12/12 03:28:10;;;;;;;7.28;5.63;;;7.10;99.90;;;;;;4912834;29;20087;-74
2020/12/12 03:30:37;;;;;;;6.75;6.07;;;7.00;99.90;;;;;;4938281;29;20058;-74
2020/12/12 03:33:04;;;;;;;7.93;7.10;;;6.90;99.90;;;;;;4939660;29;20024;-74
2020/12/12 03:35:31;;;;;;;6.40;5.80;;;6.90;99.90;;;;;;4909811;29;20032;-74
2020/12/12 03:37:58;;;;;;;6.95;6.15;;;6.90;99.90;;;;;;4930235;29;20034;-74
2020/12/12 03:40:24;;;;;;;8.60;7.45;;;6.90;99.90;;;;;;4924244;29;20388;-74
2020/12/12 03:42:54;;;;;;;6.65;5.88;;;6.90;99.90;;;;;;4932840;29;20084;-73
2020/12/12 03:45:21;;;;;;;7.15;6.45;;;6.90;99.90;;;;;;4932171;29;20032;-74
2020/12/12 03:47:48;;;;;;;7.35;6.65;;;6.90;99.90;;;;;;4930703;29;20028;-74
2020/12/12 03:50:14;;;;;;;8.80;6.93;;;6.90;99.90;;;;;;4929796;29;20372;-74
2020/12/12 03:52:40;;;;;;;7.32;6.40;;;6.90;99.90;;;;;;4932455;29;20039;-74
2020/12/12 03:55:06;;;;;;;7.60;6.90;;;6.80;99.90;;;;;;4931797;29;20040;-74
2020/12/12 03:57:32;;;;;;;7.78;5.60;;;6.70;99.90;;;;;;4932452;29;20082;-74
2020/12/12 03:59:57;;;;;;;9.13;7.50;;;6.70;99.90;;;;;;4931036;29;20075;-74
2020/12/12 04:02:23;;;;;;;9.25;7.53;;;6.70;99.90;;;;;;4937398;29;20032;-74
2020/12/12 04:04:49;;;;;;;7.05;6.45;;;6.70;99.90;;;;;;4936289;29;20035;-76
2020/12/12 04:07:15;;;;;;;9.35;6.57;;;6.70;99.90;;;;;;4937260;29;20035;-74
2020/12/12 04:09:41;;;;;;;8.75;6.70;;;6.80;99.90;;;;;;4927211;29;20032;-74
2020/12/12 04:12:07;;;;;;;6.80;6.03;;;6.80;99.90;;;;;;4934933;29;20027;-74
2020/12/12 04:14:33;;;;;;;7.78;5.63;;;6.90;99.90;;;;;;4930509;29;20039;-75
2020/12/12 04:16:59;;;;;;;8.02;6.15;;;6.80;99.90;;;;;;4918741;29;20035;-74
2020/12/12 04:19:24;;;;;;;7.22;6.53;;;6.90;99.90;;;;;;4924396;29;20664;-74
2020/12/12 04:21:50;;;;;;;7.70;7.03;;;6.80;99.90;;;;;;4925786;29;20031;-74
2020/12/12 04:24:16;;;;;;;8.18;6.43;;;6.80;99.90;;;;;;4933572;29;20475;-74
2020/12/12 04:26:42;;;;;;;7.93;6.90;;;6.80;99.90;;;;;;4932966;29;20040;-74
2020/12/12 04:29:08;;;;;;;6.18;5.57;;;6.80;99.90;;;;;;4931591;29;20027;-74
2020/12/12 04:31:34;;;;;;;6.00;5.40;;;6.80;99.90;;;;;;4921121;29;20042;-74
2020/12/12 04:34:01;;;;;;;6.45;5.47;;;6.80;99.90;;;;;;4932326;29;20095;-74
2020/12/12 04:36:26;;;;;;;6.55;5.93;;;6.80;99.90;;;;;;4931176;29;20042;-74
2020/12/12 04:38:52;;;;;;;5.45;4.20;;;6.80;99.90;;;;;;4927675;29;20024;-74
2020/12/12 04:41:19;;;;;;;7.65;5.38;;;6.80;99.90;;;;;;4912738;29;20028;-74
2020/12/12 04:43:45;;;;;;;5.28;4.78;;;6.70;99.90;;;;;;4916149;29;20469;-74
2020/12/12 04:46:13;;;;;;;5.05;4.55;;;6.70;99.90;;;;;;4930137;29;20032;-74
2020/12/12 04:48:40;;;;;;;5.10;4.60;;;6.80;99.90;;;;;;4929621;29;20032;-74
2020/12/12 04:51:06;;;;;;;6.15;5.43;;;6.80;99.90;;;;;;4934452;29;20039;-74
2020/12/12 04:53:32;;;;;;;8.25;5.18;;;6.80;99.90;;;;;;4933371;29;20031;-74
2020/12/12 04:56:06;;;;;;;4.43;4.03;;;6.80;99.90;;;;;;4936203;29;20039;-74
2020/12/12 04:58:37;;;;;;;7.28;4.85;;;6.80;99.90;;;;;;4935163;29;20077;-74
2020/12/12 05:01:05;;;;;;;6.18;4.97;;;6.80;99.90;;;;;;4933007;29;20027;-74
2020/12/12 05:03:33;;;;;;;5.65;4.68;;;6.80;99.90;;;;;;4930556;29;20100;-74
2020/12/12 05:05:59;;;;;;;7.03;4.70;;;6.80;99.90;;;;;;4932969;29;20451;-74
2020/12/12 05:08:25;;;;;;;4.88;4.03;;;6.80;99.90;;;;;;4929805;29;20028;-76
2020/12/12 05:10:52;;;;;;;5.03;4.30;;;6.80;99.90;;;;;;4907459;29;20028;-74
2020/12/12 05:13:25;;;;;;;3.78;3.47;;;6.90;99.90;;;;;;4932826;29;20060;-74
2020/12/12 05:15:53;;;;;;;5.72;4.00;;;6.80;99.90;;;;;;4930325;29;20074;-74
2020/12/12 05:18:19;;;;;;;5.13;4.70;;;6.80;99.90;;;;;;4914162;29;20028;-74
2020/12/12 05:20:45;;;;;;;5.18;4.35;;;6.80;99.90;;;;;;4928169;29;20028;-74
2020/12/12 05:23:13;;;;;;;7.22;4.05;;;6.80;99.90;;;;;;4910593;29;20106;-74
2020/12/12 05:25:40;;;;;;;7.00;3.90;;;6.80;99.90;;;;;;4914451;29;20056;-74
2020/12/12 05:28:08;;;;;;;5.47;3.85;;;6.70;99.90;;;;;;4935818;29;20149;-74
2020/12/12 05:30:38;;;;;;;4.22;3.83;;;6.70;99.90;;;;;;4929453;29;20027;-74
2020/12/12 05:33:05;;;;;;;6.22;5.30;;;6.70;99.90;;;;;;4930367;29;20032;-74
2020/12/12 05:35:31;;;;;;;6.30;4.35;;;6.80;99.90;;;;;;4933289;29;20035;-74
2020/12/12 05:38:02;;;;;;;4.53;4.13;;;6.80;99.90;;;;;;4915573;29;20031;-74
2020/12/12 05:40:28;;;;;;;6.03;5.03;;;6.80;99.90;;;;;;4925483;29;20034;-74
2020/12/12 05:42:54;;;;;;;4.72;4.32;;;6.70;99.90;;;;;;4929222;29;20039;-74
2020/12/12 05:45:20;;;;;;;7.95;4.93;;;6.70;99.90;;;;;;4920161;29;20392;-74
2020/12/12 05:47:46;;;;;;;5.97;5.38;;;6.60;99.90;;;;;;4934460;29;20043;-74
2020/12/12 05:50:13;;;;;;;6.70;5.35;;;6.60;99.90;;;;;;4938954;29;20027;-74
2020/12/12 05:52:42;;;;;;;5.75;5.15;;;6.60;99.90;;;;;;4938082;29;20030;-74
2020/12/12 05:55:08;;;;;;;5.85;5.18;;;6.60;99.90;;;;;;4932737;29;20028;-74
2020/12/12 05:57:37;;;;;;;8.02;4.97;;;6.60;99.90;;;;;;4930039;29;20111;-74
2020/12/12 06:00:05;;;;;;;6.60;5.50;;;6.60;99.90;;;;;;4932683;29;20027;-74
2020/12/12 06:02:36;;;;;;;7.72;4.32;;;6.60;99.90;;;;;;4935065;29;20031;-74
2020/12/12 06:05:06;;;;;;;4.68;4.28;;;6.60;99.90;;;;;;4914249;29;20032;-74
2020/12/12 06:07:33;;;;;;;6.88;4.75;;;6.50;99.90;;;;;;4917152;29;20114;-74
2020/12/12 06:10:03;;;;;;;6.30;4.63;;;6.50;99.90;;;;;;4915277;29;20027;-74
2020/12/12 06:12:28;;;;;;;6.43;4.60;;;6.50;99.90;;;;;;4923773;29;20031;-74
2020/12/12 06:14:57;;;;;;;5.50;3.97;;;6.60;99.90;;;;;;4932707;29;20090;-76
2020/12/12 06:17:35;;;;;;;5.53;5.03;;;6.60;99.90;;;;;;4934178;29;20048;-74
2020/12/12 06:20:02;;;;;;;6.97;4.63;;;6.60;99.90;;;;;;4926091;29;20020;-74
2020/12/12 06:22:31;;;;;;;4.90;4.38;;;6.60;99.90;;;;;;4932408;29;20035;-74
2020/12/12 06:25:03;;;;;;;5.95;4.10;;;6.70;99.90;;;;;;4926122;29;20063;-74
2020/12/12 06:27:41;;;;;;;6.55;4.13;;;6.70;99.90;;;;;;4919669;29;20039;-75
2020/12/12 06:30:12;;;;;;;4.80;3.83;;;6.80;99.90;;;;;;4930509;29;20115;-74
2020/12/12 06:32:43;;;;;;;4.63;4.22;;;6.80;99.90;;;;;;4931011;29;20017;-74
2020/12/12 06:35:13;;;;;;;5.60;4.13;;;6.80;99.90;;;;;;4934292;29;20035;-74
2020/12/12 06:37:40;;;;;;;7.47;4.53;;;6.90;99.90;;;;;;4932064;29;20049;-74
2020/12/12 06:40:11;;;;;;;6.90;5.63;;;6.90;99.90;;;;;;4908537;29;20103;-74
2020/12/12 06:42:42;;;;;;;6.65;4.85;;;6.90;99.90;;;;;;4934831;29;20027;-74
2020/12/12 06:45:17;;;;;;;5.93;4.90;;;6.80;99.90;;;;;;4925871;29;20036;-74
2020/12/12 06:47:45;;;;;;;7.22;5.10;;;6.90;99.90;;;;;;4924451;29;20112;-74
2020/12/12 06:50:16;;;;;;;7.45;5.03;;;6.80;99.90;;;;;;4924952;29;20040;-74
2020/12/12 06:52:44;;;;;;;6.75;4.63;;;6.80;99.90;;;;;;4927744;29;20028;-74
2020/12/12 06:55:12;;;;;;;8.30;5.57;;;6.80;99.90;;;;;;4929150;29;20522;-74
2020/12/12 06:57:43;;;;;;;5.72;5.15;;;6.90;99.90;;;;;;4920877;29;20496;-74
2020/12/12 07:00:30;;;;;;;9.38;5.53;;;6.90;99.90;;;;;;4924520;29;20038;-74
2020/12/12 07:03:01;;;;;;;6.28;5.68;;;6.90;99.90;;;;;;4920732;29;20027;-74
2020/12/12 07:05:30;;;;;;;5.25;4.80;;;6.90;99.90;;;;;;4924771;29;20056;-74
2020/12/12 07:08:10;;;;;;;6.10;4.97;;;7.00;99.90;;;;;;4931503;29;20036;-74
2020/12/12 07:10:44;;;;;;;5.72;5.10;;;6.90;99.90;;;;;;4928255;29;20083;-75
2020/12/12 07:13:12;;;;;;;7.22;6.10;;;6.90;99.90;;;;;;4931970;29;20041;-74
2020/12/12 07:15:39;;;;;;;10.90;6.90;;;6.90;99.90;;;;;;4929387;29;20036;-75
2020/12/12 07:18:09;;;;;;;13.35;6.60;;;6.90;99.90;;;;;;4922198;29;20511;-75
2020/12/12 07:20:44;;;;;;;8.50;5.72;;;6.90;99.90;;;;;;4925010;29;20047;-71
2020/12/12 07:23:11;;;;;;;6.72;6.13;;;6.90;99.90;;;;;;4923450;29;20032;-71
2020/12/12 07:25:37;;;;;;;9.95;5.30;;;6.90;99.90;;;;;;4921019;29;20083;-71
2020/12/12 07:28:04;;;;;;;6.88;6.18;;;7.00;99.90;;;;;;4926361;29;20052;-71
2020/12/12 07:30:29;;;;;;;8.43;7.60;;;7.00;99.90;;;;;;4926185;29;20431;-74
2020/12/12 07:32:55;;;;;;;9.05;7.88;;;7.10;99.90;;;;;;4930005;29;20097;-71
2020/12/12 07:35:22;;;;;;;7.85;6.88;;;7.10;99.90;;;;;;4925858;29;20043;-71
2020/12/12 07:37:47;;;;;;;7.40;5.55;;;7.20;99.90;;;;;;4927458;29;20030;-74
2020/12/12 07:40:13;;;;;;;8.48;7.35;;;7.20;99.90;;;;;;4920157;29;20535;-71
2020/12/12 07:42:39;;;;;;;7.65;6.85;;;7.30;99.90;;;;;;4926129;29;20042;-75
2020/12/12 07:45:17;;;;;;;8.02;6.57;;;7.30;99.90;;;;;;4923037;29;20103;-72
2020/12/12 07:47:43;;;;;;;12.23;6.78;;;7.30;99.90;;;;;;4919506;29;20028;-73
2020/12/12 07:50:12;;;;;;;7.63;6.88;;;7.30;99.90;;;;;;4911202;29;20391;-70
2020/12/12 07:52:41;;;;;;;7.63;6.88;;;7.40;99.90;;;;;;4932631;29;20483;-73
2020/12/12 07:55:09;;;;;;;8.05;6.40;;;7.40;99.90;;;;;;4930451;29;20055;-72
2020/12/12 07:57:40;;;;;;;8.30;6.60;;;7.50;99.90;;;;;;4920892;29;20054;-73
2020/12/12 08:00:11;;;;;;;8.80;6.72;;;7.60;99.90;;;;;;4933889;29;20023;-73
2020/12/12 08:02:37;;;;;;;6.32;5.13;;;7.70;99.90;;;;;;4915969;29;20115;-71
2020/12/12 08:05:05;;;;;;;6.93;5.60;;;7.70;99.90;;;;;;4922810;29;20024;-71
2020/12/12 08:07:32;;;;;;;6.18;5.53;;;7.90;99.90;;;;;;4932678;29;20080;-72
2020/12/12 08:09:59;;;;;;;6.38;5.03;;;7.80;99.90;;;;;;4916249;29;20035;-71
2020/12/12 08:12:31;;;;;;;5.75;5.22;;;7.70;99.90;;;;;;4931363;29;20499;-71
2020/12/12 08:15:07;;;;;;;8.60;5.50;;;7.80;99.90;;;;;;4910139;29;20484;-73
2020/12/12 08:17:33;;;;;;;5.82;5.22;;;7.80;99.90;;;;;;4930284;29;20027;-72
2020/12/12 08:20:00;;;;;;;5.60;4.97;;;7.90;99.90;;;;;;4933402;29;20031;-72
2020/12/12 08:22:27;;;;;;;6.55;5.18;;;8.00;99.90;;;;;;4927354;29;20071;-72
2020/12/12 08:24:53;;;;;;;10.82;7.07;;;8.10;99.90;;;;;;4932277;29;20035;-73
2020/12/12 08:27:24;;;;;;;10.93;6.97;;;8.30;99.90;;;;;;4936689;29;20099;-73
2020/12/12 08:29:53;;;;;;;7.20;6.50;;;8.40;99.90;;;;;;4935437;29;20043;-73
2020/12/12 08:32:33;;;;;;;9.13;6.25;;;8.50;99.90;;;;;;4920496;29;20035;-74
2020/12/12 08:35:15;;;;;;;9.25;6.32;;;8.60;99.90;;;;;;4927838;29;20123;-74
2020/12/12 08:38:01;;;;;;;7.38;6.68;;;8.70;99.90;;;;;;4931624;29;20032;-73
2020/12/12 08:40:33;;;;;;;14.07;7.55;;;8.70;99.90;;;;;;4914503;29;20039;-74
2020/12/12 08:43:07;;;;;;;9.23;8.32;;;8.70;99.90;;;;;;4909450;29;20031;-74
2020/12/12 08:45:37;;;;;;;12.82;7.30;;;8.70;99.90;;;;;;4915318;29;20056;-74
2020/12/12 08:48:04;;;;;;;10.98;8.25;;;8.70;99.90;;;;;;4925588;29;20039;-73
2020/12/12 08:50:48;;;;;;;15.45;7.53;;;8.70;99.90;;;;;;4935555;29;20206;-73
2020/12/12 08:53:36;;;;;;;12.40;9.18;;;8.70;99.90;;;;;;4935435;29;20517;-73
2020/12/12 08:56:11;;;;;;;8.10;7.20;;;8.90;99.90;;;;;;4935888;29;20035;-77
2020/12/12 08:58:45;;;;;;;7.68;6.88;;;8.90;99.90;;;;;;4918949;29;20031;-73
2020/12/12 09:01:11;;;;;;;8.32;7.50;;;9.00;99.90;;;;;;4935443;29;20024;-72
2020/12/12 09:03:53;;;;;;;8.25;7.43;;;9.20;99.90;;;;;;4936239;29;20042;-74
2020/12/12 09:06:19;;;;;;;10.70;7.22;;;9.10;99.90;;;;;;4918764;29;20032;-73
2020/12/12 09:08:44;;;;;;;9.43;8.48;;;9.20;99.90;;;;;;4936059;29;20039;-72
2020/12/12 09:11:16;;;;;;;24.17;7.60;;;9.10;99.90;;;;;;4935572;29;20102;-73
2020/12/12 09:13:42;;;;;;;9.02;5.72;;;9.20;99.90;;;;;;4938302;29;20027;-72
2020/12/12 09:16:09;;;;;;;10.80;8.18;;;9.30;99.90;;;;;;4938484;29;20042;-72
2020/12/12 09:18:48;;;;;;;17.88;9.80;;;9.40;99.90;;;;;;4919191;29;20079;-72
2020/12/12 09:21:14;;;;;;;8.48;6.78;;;9.60;99.90;;;;;;4935921;29;20032;-76
2020/12/12 09:23:41;;;;;;;9.32;6.38;;;9.90;99.90;;;;;;4935634;29;20035;-73
2020/12/12 09:26:08;;;;;;;12.50;8.15;;;9.90;99.90;;;;;;4935872;29;20406;-73
2020/12/12 09:28:34;;;;;;;10.35;7.28;;;9.90;99.90;;;;;;4935135;29;20059;-75
2020/12/12 09:31:01;;;;;;;11.70;7.90;;;9.90;99.90;;;;;;4935799;29;20082;-73
2020/12/12 09:33:27;;;;;;;10.10;7.72;;;10.10;99.90;;;;;;4914291;29;20442;-73
2020/12/12 09:35:52;;;;;;;11.88;8.32;;;10.30;99.90;;;;;;4918055;29;20032;-73
2020/12/12 09:38:18;;;;;;;9.93;7.63;;;10.30;99.90;;;;;;4916007;29;20021;-73
2020/12/12 09:40:49;;;;;;;10.45;6.85;;;10.40;99.90;;;;;;4924126;29;20039;-73
2020/12/12 09:43:16;;;;;;;9.75;7.72;;;10.50;99.90;;;;;;4918416;29;20030;-73
2020/12/12 09:45:42;;;;;;;10.40;7.57;;;10.60;99.90;;;;;;4936330;29;20026;-73
2020/12/12 09:48:08;;;;;;;10.38;8.02;;;10.60;99.90;;;;;;4935576;29;20478;-73
2020/12/12 09:50:35;;;;;;;8.25;6.35;;;10.70;99.90;;;;;;4918292;29;20032;-73
2020/12/12 09:53:05;;;;;;;8.63;7.38;;;10.80;99.90;;;;;;4935891;29;20047;-74
2020/12/12 09:55:33;;;;;;;7.93;6.35;;;11.00;99.90;;;;;;4935320;29;20024;-73
2020/12/12 09:57:59;;;;;;;9.75;6.13;;;11.10;99.90;;;;;;4935816;29;20019;-73
2020/12/12 10:00:26;;;;;;;7.47;6.30;;;11.10;99.90;;;;;;4932548;29;20032;-73
2020/12/12 10:02:52;;;;;;;11.63;6.75;;;11.10;99.90;;;;;;4933741;29;20443;-73
2020/12/12 10:05:19;;;;;;;9.27;6.78;;;11.20;99.90;;;;;;4935978;29;20035;-74
2020/12/12 10:07:45;;;;;;;11.95;7.72;;;11.20;99.90;;;;;;4935220;29;20070;-73
2020/12/12 10:10:10;;;;;;;10.82;7.63;;;11.40;99.90;;;;;;4918315;29;20035;-73
2020/12/12 10:12:36;;;;;;;9.02;8.15;;;11.60;99.90;;;;;;4935474;29;20019;-74
2020/12/12 10:15:03;;;;;;;11.73;8.43;;;11.50;99.90;;;;;;4934745;29;20020;-73
2020/12/12 10:17:30;;;;;;;9.50;8.45;;;11.60;99.90;;;;;;4934982;29;20016;-76
2020/12/12 10:19:56;;;;;;;10.95;8.30;;;11.70;99.90;;;;;;4935351;29;20024;-74
2020/12/12 10:22:22;;;;;;;10.88;9.98;;;11.70;99.90;;;;;;4917065;29;20028;-73
2020/12/12 10:24:47;;;;;;;12.30;9.25;;;11.60;99.90;;;;;;4935023;29;20059;-73
2020/12/12 10:27:13;;;;;;;12.07;10.93;;;11.60;99.90;;;;;;4934671;29;20039;-73
2020/12/12 10:29:39;;;;;;;15.35;10.48;;;11.70;99.90;;;;;;4934672;29;20107;-72
2020/12/12 10:32:05;;;;;;;14.13;11.27;;;11.80;99.90;;;;;;4934537;29;20024;-72
2020/12/12 10:34:30;;;;;;;11.35;9.50;;;11.90;99.90;;;;;;4934956;29;20032;-73
2020/12/12 10:36:56;;;;;;;11.18;10.13;;;11.90;99.90;;;;;;4935089;29;20042;-73
2020/12/12 10:39:34;;;;;;;19.25;9.88;;;11.90;99.90;;;;;;4935533;29;20099;-73
2020/12/12 10:42:00;;;;;;;15.20;11.15;;;11.90;99.90;;;;;;4935612;29;20032;-72
2020/12/12 10:44:26;;;;;;;12.98;10.23;;;11.80;99.90;;;;;;4937385;29;20394;-75
2020/12/12 10:46:53;;;;;;;13.30;10.43;;;11.90;99.90;;;;;;4922798;29;20099;-73
2020/12/12 10:49:19;;;;;;;14.02;11.45;;;11.90;99.90;;;;;;4939724;29;20035;-73
2020/12/12 10:51:51;;;;;;;32.88;17.23;;;12.00;99.90;;;;;;4922532;29;20031;-73
2020/12/12 10:54:17;;;;;;;44.93;21.40;;;11.80;99.90;;;;;;4940157;29;20023;-73
2020/12/12 10:56:44;;;;;;;22.40;14.15;;;11.80;99.90;;;;;;4939050;29;20294;-72
2020/12/12 10:59:11;;;;;;;17.25;11.98;;;11.70;99.90;;;;;;4937077;29;20088;-73
2020/12/12 11:01:37;;;;;;;14.48;10.93;;;11.80;99.90;;;;;;4943080;29;20047;-72
2020/12/12 11:04:03;;;;;;;17.05;11.32;;;11.70;99.90;;;;;;4941973;29;20055;-72
2020/12/12 11:06:29;;;;;;;15.40;11.02;;;11.60;99.90;;;;;;4942744;29;20027;-73
2020/12/12 11:08:55;;;;;;;23.63;12.95;;;11.60;99.90;;;;;;4940601;29;20462;-72
2020/12/12 11:11:21;;;;;;;15.43;12.88;;;11.60;99.90;;;;;;4937621;29;20455;-72
2020/12/12 11:13:47;;;;;;;16.95;12.40;;;11.70;99.90;;;;;;4938426;29;20032;-73
2020/12/12 11:16:20;;;;;;;17.77;13.00;;;11.80;99.90;;;;;;4937469;29;20032;-73
2020/12/12 11:18:51;;;;;;;19.65;13.20;;;11.70;99.90;;;;;;4921352;29;20087;-73
2020/12/12 11:21:21;;;;;;;9.93;8.90;;;11.70;99.90;;;;;;4921561;29;20024;-73
2020/12/12 11:23:47;;;;;;;14.55;12.30;;;11.50;99.90;;;;;;4939072;29;20031;-72
2020/12/12 11:26:13;;;;;;;14.63;11.05;;;11.30;99.90;;;;;;4938492;29;20059;-73
2020/12/12 11:28:44;;;;;;;13.43;10.20;;;11.20;99.90;;;;;;4938562;29;20126;-72
2020/12/12 11:31:11;;;;;;;37.35;15.70;;;11.20;99.90;;;;;;4921580;29;20038;-73
2020/12/12 11:33:39;;;;;;;10.98;9.38;;;11.10;99.90;;;;;;4933457;29;20087;-74
2020/12/12 11:36:29;;;;;;;12.07;10.00;;;11.10;99.90;;;;;;4922411;29;20286;-72
2020/12/12 11:39:00;;;;;;;12.68;10.07;;;11.20;99.90;;;;;;4938685;29;20023;-72
2020/12/12 11:44:22;;;;;;;9.25;7.72;;;11.40;99.90;;;;;;4938370;29;20372;-72
2020/12/12 11:46:49;;;;;;;10.73;7.72;;;11.40;99.90;;;;;;4938371;29;20023;-72
2020/12/12 11:49:16;;;;;;;10.88;7.45;;;11.60;99.90;;;;;;4938351;29;20042;-74
2020/12/12 11:51:42;;;;;;;10.88;7.70;;;11.60;99.90;;;;;;4937561;29;20086;-73
2020/12/12 11:54:07;;;;;;;12.18;8.13;;;11.60;99.90;;;;;;4938073;29;20511;-72
2020/12/12 11:56:34;;;;;;;9.77;8.27;;;11.70;99.90;;;;;;4918752;29;20040;-73
2020/12/12 11:59:00;;;;;;;12.02;8.50;;;11.60;99.90;;;;;;4937267;29;20028;-73
2020/12/12 12:01:27;;;;;;;8.93;8.02;;;11.70;99.90;;;;;;4937159;29;20034;-73
2020/12/12 12:03:54;;;;;;;13.57;7.88;;;11.60;99.90;;;;;;4938218;29;20028;-73
2020/12/12 12:06:21;;;;;;;21.88;7.80;;;11.60;99.90;;;;;;4937020;29;20535;-77
2020/12/12 12:11:30;;;;;;;12.57;6.90;;;11.60;99.90;;;;;;4937037;29;20095;-73
2020/12/12 12:14:16;;;;;;;8.35;7.07;;;11.50;99.90;;;;;;4920240;29;20513;-73
2020/12/12 12:16:42;;;;;;;7.50;6.25;;;11.40;99.90;;;;;;4920101;29;20044;-73
2020/12/12 12:19:13;;;;;;;6.88;5.97;;;11.40;99.90;;;;;;4936820;29;20056;-73
2020/12/12 12:21:40;;;;;;;6.75;6.07;;;11.30;99.90;;;;;;4929454;29;20024;-76
2020/12/12 12:24:08;;;;;;;7.03;5.25;;;11.40;99.90;;;;;;4930240;29;20035;-73
2020/12/12 12:26:36;;;;;;;7.22;6.63;;;11.30;99.90;;;;;;4937098;29;20030;-73
2020/12/12 12:29:06;;;;;;;6.20;5.68;;;11.40;99.90;;;;;;4931474;29;20515;-72
2020/12/12 12:31:32;;;;;;;6.38;5.75;;;11.30;99.90;;;;;;4917280;29;20052;-73
2020/12/12 12:33:59;;;;;;;12.88;9.73;;;11.30;99.90;;;;;;4926670;29;20413;-72
2020/12/12 12:36:26;;;;;;;7.35;6.10;;;11.30;99.90;;;;;;4926368;29;20032;-72
2020/12/12 12:38:53;;;;;;;6.88;6.10;;;11.20;99.90;;;;;;4916124;29;20036;-73
2020/12/12 12:41:19;;;;;;;8.05;7.25;;;11.10;99.90;;;;;;4916989;29;20035;-74
2020/12/12 12:43:51;;;;;;;7.38;6.63;;;11.00;99.90;;;;;;4936873;29;20128;-74
2020/12/12 12:46:18;;;;;;;7.35;6.72;;;10.80;99.90;;;;;;4935951;29;20431;-73
2020/12/12 12:48:45;;;;;;;9.00;6.18;;;10.90;99.90;;;;;;4919334;29;20047;-73
2020/12/12 12:51:15;;;;;;;18.35;12.57;;;10.80;99.90;;;;;;4936464;29;20331;-73
2020/12/12 12:53:40;;;;;;;10.60;7.82;;;10.80;99.90;;;;;;4936133;29;20075;-73
2020/12/12 12:56:10;;;;;;;25.20;14.90;;;10.80;99.90;;;;;;4919084;29;20024;-73
2020/12/12 12:58:35;;;;;;;10.20;6.60;;;11.00;99.90;;;;;;4918435;29;20028;-72